Chesilhurst, New Jersey
Current Conditions -  °F | °C
As of 6:54 PM on Sunday 23 Nov 2014 (Local Time) from KVAY Reporting Station
Clear Clear  
Wind Chill: 50°   Ceiling: Unl
Heat Index: 50°   Visibility: 10mi
Dew Point: 41°   Wind: 5mph
Humidity: 71%   Direction: 160°SSE
Pressure: 30.12"   Gusts: NA
Location:  39.719°N, 74.8185°W
Report Text: KVAY 232354Z AUTO 16004KT 10SM CLR 10/05 A3012 RMK AO2 SLP199 T01000050 10128 20083 56008
Loading
Personal Weather Stations






























Interactive Weather Map New forecast layout! Learn more

10-Day Weather Forecast

Advertisements
Track Severe Weather on mobile